Puerto Vallarta, México

12:21 AM CDT en Octubre 21, 2014 (GMT -0500)
Lic Gustavo Diaz Ordaz International | Change Station
CLOSE
Current Station
Aeropuerto
Location: Puerto Vallarta,
Altura: 20 ft
Estaciones meteorológicas cercanas

Alt 20 ft 20.68 °N, 105.25 °W | Updated 36 minutes ago

Mostly Cloudy
Muy nublado
79 ° F
Sensación térmica 79 ° F
N
5
Viento Variable Viento desde NE

Hoy
Alta -- | Baja -- ° F
--% Posibilidad de precipitaciones
Ayer
Alta -- | Baja -- ° F
Precip. -- pul
7:58 AM 7:32 PM
Creciente menguante, 7% visible
Presión 29.77 pul
Visibilidad 12.0 Millas
Nubes Baja 2500 ft
Muy nublado 7000 ft
Punto de rocío 75 ° F
Humedad 89%
Precipitaciones 0.00 pul
Espesor de la nieve No disponible.
UV 0 de una escala de 12
Polen No disponible.
Calidad del aire No disponible.
Flu Activity No disponible.
METAR MMPR 210445Z 04004KT 12SM FEW025 BKN070 26/24 A2977 RMK 8/570

More Conditions Fewer Conditions

Presión 29.77 pul
Visibilidad 12.0 Millas
Nubes Baja 2500 ft
Muy nublado 7000 ft
Punto de rocío 75 ° F
Humedad 89%
Precipitaciones 0.00 pul
Espesor de la nieve No disponible.
UV 0 de una escala de 12
Polen No disponible.
Calidad del aire No disponible.
Flu Activity No disponible.
METAR MMPR 210445Z 04004KT 12SM FEW025 BKN070 26/24 A2977 RMK 8/570

More Conditions Fewer Conditions

10-Day Weather Forecast

Almanac

Astronomía

Oct. 21, 2014 Salida Puesta
Hora real 7:58 AM CDT 7:32 PM CDT
Crepúsculo civil 7:36 AM CDT 7:54 PM CDT
Crepúsculo náutico 7:10 AM CDT 8:20 PM CDT
Crepúsculo astronómico 6:44 AM CDT 8:46 PM CDT
Luna 6:01 AM CDT 6:14 PM CDT
Horas de luz 12h 18m
Horas de luz
11h 33m
Tomorrow will be 1m 5s shorter.
Creciente menguante, 7% of the Moon is Illuminated
Hoy
Creciente menguante
Oct 23
Nueva
Oct 30
Cuarto creciente
Nov 6
Luna llena
Nov 14
Cuarto menguante

Extremos de ayer

Máximos del país Bajas del país

Community

WunderPhotos

Upload Photos

1,763,612 ¡fotos cargadas!

Nearby

Calidad del aire

Not available.

Grosos de nieve

Not available.

Actividad de terremotos

Ciudad Distance Mag. Tiempo y dato
No hay informes recientes de la actividad sísmica.
Magnitud mínima muestra es 2,5.

Temperaturas de aguas costeras

Lugar Temperatura
Sin partes meteorológicos de las estaciones

Estaciones meteorológicas cercanas